sensor_id;sensor_type;location;lat;lon;timestamp;pressure;altitude;pressure_sealevel;temperature;humidity
59493;BME280;45497;43.996;22.876;2023-02-23T00:01:16;101127.72;;;10.65;46.12
59493;BME280;45497;43.996;22.876;2023-02-23T00:03:44;101133.72;;;10.75;46.21
59493;BME280;45497;43.996;22.876;2023-02-23T00:06:10;101129.69;;;10.71;46.31
59493;BME280;45497;43.996;22.876;2023-02-23T00:08:37;101131.53;;;10.70;45.88
59493;BME280;45497;43.996;22.876;2023-02-23T00:11:04;101134.50;;;10.67;45.96
59493;BME280;45497;43.996;22.876;2023-02-23T00:13:31;101134.63;;;10.58;45.99
59493;BME280;45497;43.996;22.876;2023-02-23T00:16:06;101134.44;;;10.51;46.23
59493;BME280;45497;43.996;22.876;2023-02-23T00:18:32;101140.69;;;10.42;46.98
59493;BME280;45497;43.996;22.876;2023-02-23T00:21:10;101140.28;;;10.28;47.36
59493;BME280;45497;43.996;22.876;2023-02-23T00:23:40;101144.22;;;10.24;47.32
59493;BME280;45497;43.996;22.876;2023-02-23T00:26:05;101156.22;;;10.10;47.69
59493;BME280;45497;43.996;22.876;2023-02-23T00:28:31;101163.47;;;9.82;48.64
59493;BME280;45497;43.996;22.876;2023-02-23T00:30:57;101159.50;;;9.42;49.16
59493;BME280;45497;43.996;22.876;2023-02-23T00:33:22;101155.69;;;9.09;49.92
59493;BME280;45497;43.996;22.876;2023-02-23T00:35:48;101167.00;;;8.83;50.84
59493;BME280;45497;43.996;22.876;2023-02-23T00:38:13;101175.81;;;8.64;51.71
59493;BME280;45497;43.996;22.876;2023-02-23T00:40:39;101158.41;;;8.71;51.52
59493;BME280;45497;43.996;22.876;2023-02-23T00:43:05;101165.63;;;8.79;51.03
59493;BME280;45497;43.996;22.876;2023-02-23T00:45:30;101168.88;;;8.91;50.73
59493;BME280;45497;43.996;22.876;2023-02-23T00:47:56;101176.75;;;8.83;50.74
59493;BME280;45497;43.996;22.876;2023-02-23T00:50:21;101173.19;;;8.64;51.35
59493;BME280;45497;43.996;22.876;2023-02-23T00:52:47;101169.47;;;8.57;51.41
59493;BME280;45497;43.996;22.876;2023-02-23T00:55:14;101171.09;;;8.68;51.38
59493;BME280;45497;43.996;22.876;2023-02-23T00:57:40;101163.94;;;8.78;50.95
59493;BME280;45497;43.996;22.876;2023-02-23T01:00:08;101171.25;;;8.66;50.91
59493;BME280;45497;43.996;22.876;2023-02-23T01:02:40;101176.38;;;8.68;50.81
59493;BME280;45497;43.996;22.876;2023-02-23T01:05:07;101180.69;;;8.69;50.78
59493;BME280;45497;43.996;22.876;2023-02-23T01:07:32;101179.00;;;8.68;50.86
59493;BME280;45497;43.996;22.876;2023-02-23T01:09:58;101186.84;;;8.59;51.37
59493;BME280;45497;43.996;22.876;2023-02-23T01:12:23;101177.25;;;8.58;50.94
59493;BME280;45497;43.996;22.876;2023-02-23T01:14:49;101184.78;;;8.53;51.15
59493;BME280;45497;43.996;22.876;2023-02-23T01:17:14;101189.66;;;8.38;51.92
59493;BME280;45497;43.996;22.876;2023-02-23T01:19:40;101182.06;;;8.26;52.26
59493;BME280;45497;43.996;22.876;2023-02-23T01:22:05;101190.56;;;8.19;52.28
59493;BME280;45497;43.996;22.876;2023-02-23T01:24:31;101175.31;;;8.03;52.47
59493;BME280;45497;43.996;22.876;2023-02-23T01:26:56;101177.13;;;7.93;52.94
59493;BME280;45497;43.996;22.876;2023-02-23T01:29:22;101184.22;;;7.93;53.23
59493;BME280;45497;43.996;22.876;2023-02-23T01:31:48;101188.50;;;7.94;52.82
59493;BME280;45497;43.996;22.876;2023-02-23T01:34:18;101187.97;;;7.90;52.80
59493;BME280;45497;43.996;22.876;2023-02-23T01:36:44;101188.94;;;7.89;52.95
59493;BME280;45497;43.996;22.876;2023-02-23T01:39:12;101190.34;;;7.83;53.14
59493;BME280;45497;43.996;22.876;2023-02-23T01:41:38;101190.19;;;7.75;53.06
59493;BME280;45497;43.996;22.876;2023-02-23T01:46:42;101195.06;;;7.70;53.49
59493;BME280;45497;43.996;22.876;2023-02-23T01:49:21;101195.63;;;7.74;52.92
59493;BME280;45497;43.996;22.876;2023-02-23T01:52:10;101203.00;;;7.80;52.82
59493;BME280;45497;43.996;22.876;2023-02-23T01:54:44;101204.94;;;7.78;52.94
59493;BME280;45497;43.996;22.876;2023-02-23T01:57:15;101210.34;;;7.76;52.80
59493;BME280;45497;43.996;22.876;2023-02-23T01:59:44;101207.97;;;7.73;53.22
59493;BME280;45497;43.996;22.876;2023-02-23T02:02:11;101219.38;;;7.74;53.00
59493;BME280;45497;43.996;22.876;2023-02-23T02:04:39;101219.94;;;7.68;53.43
59493;BME280;45497;43.996;22.876;2023-02-23T02:07:13;101215.50;;;7.58;53.89
59493;BME280;45497;43.996;22.876;2023-02-23T02:09:41;101220.06;;;7.56;53.45
59493;BME280;45497;43.996;22.876;2023-02-23T02:12:27;101215.34;;;7.60;53.79
59493;BME280;45497;43.996;22.876;2023-02-23T02:14:53;101231.03;;;7.71;53.46
59493;BME280;45497;43.996;22.876;2023-02-23T02:23:32;101223.25;;;7.79;52.67
59493;BME280;45497;43.996;22.876;2023-02-23T02:29:26;101226.59;;;7.62;53.46
59493;BME280;45497;43.996;22.876;2023-02-23T02:32:10;101235.47;;;7.61;53.72
59493;BME280;45497;43.996;22.876;2023-02-23T02:35:08;101218.78;;;7.51;53.94
59493;BME280;45497;43.996;22.876;2023-02-23T02:38:16;101229.22;;;7.52;53.96
59493;BME280;45497;43.996;22.876;2023-02-23T02:41:04;101242.69;;;7.49;54.13
59493;BME280;45497;43.996;22.876;2023-02-23T02:43:39;101256.03;;;7.47;54.51
59493;BME280;45497;43.996;22.876;2023-02-23T02:52:22;101257.69;;;7.68;53.68
59493;BME280;45497;43.996;22.876;2023-02-23T02:54:51;101258.25;;;7.72;53.61
59493;BME280;45497;43.996;22.876;2023-02-23T02:57:21;101262.56;;;7.73;53.24
59493;BME280;45497;43.996;22.876;2023-02-23T02:59:49;101254.94;;;7.70;53.26
59493;BME280;45497;43.996;22.876;2023-02-23T03:02:36;101265.34;;;7.71;53.50
59493;BME280;45497;43.996;22.876;2023-02-23T03:05:23;101264.91;;;7.76;53.21
59493;BME280;45497;43.996;22.876;2023-02-23T03:09:00;101263.56;;;7.81;52.89
59493;BME280;45497;43.996;22.876;2023-02-23T03:11:37;101268.53;;;7.84;52.56
59493;BME280;45497;43.996;22.876;2023-02-23T03:14:32;101267.84;;;7.82;52.83
59493;BME280;45497;43.996;22.876;2023-02-23T03:17:46;101277.00;;;7.69;53.44
59493;BME280;45497;43.996;22.876;2023-02-23T03:23:23;101279.34;;;7.52;53.63
59493;BME280;45497;43.996;22.876;2023-02-23T03:26:19;101282.09;;;7.51;53.90
59493;BME280;45497;43.996;22.876;2023-02-23T03:29:54;101287.13;;;7.54;53.63
59493;BME280;45497;43.996;22.876;2023-02-23T03:38:39;101278.69;;;7.60;53.14
59493;BME280;45497;43.996;22.876;2023-02-23T03:41:27;101282.00;;;7.62;53.26
59493;BME280;45497;43.996;22.876;2023-02-23T03:44:16;101296.16;;;7.61;53.32
59493;BME280;45497;43.996;22.876;2023-02-23T03:47:03;101291.19;;;7.68;52.93
59493;BME280;45497;43.996;22.876;2023-02-23T03:49:49;101303.53;;;7.67;52.91
59493;BME280;45497;43.996;22.876;2023-02-23T03:52:48;101309.91;;;7.55;53.16
59493;BME280;45497;43.996;22.876;2023-02-23T03:55:37;101313.34;;;7.45;53.52
59493;BME280;45497;43.996;22.876;2023-02-23T03:58:29;101303.19;;;7.41;53.53
59493;BME280;45497;43.996;22.876;2023-02-23T04:01:15;101313.75;;;7.41;53.55
59493;BME280;45497;43.996;22.876;2023-02-23T04:04:02;101314.06;;;7.47;53.38
59493;BME280;45497;43.996;22.876;2023-02-23T04:06:48;101314.44;;;7.43;53.26
59493;BME280;45497;43.996;22.876;2023-02-23T04:09:32;101313.50;;;7.44;53.37
59493;BME280;45497;43.996;22.876;2023-02-23T04:13:07;101309.16;;;7.43;53.07
59493;BME280;45497;43.996;22.876;2023-02-23T04:15:33;101316.94;;;7.44;53.23
59493;BME280;45497;43.996;22.876;2023-02-23T04:18:03;101319.97;;;7.40;53.19
59493;BME280;45497;43.996;22.876;2023-02-23T04:20:28;101309.97;;;7.34;53.15
59493;BME280;45497;43.996;22.876;2023-02-23T04:22:54;101314.25;;;7.25;53.73
59493;BME280;45497;43.996;22.876;2023-02-23T04:25:20;101318.25;;;7.19;53.55
59493;BME280;45497;43.996;22.876;2023-02-23T04:27:48;101322.59;;;7.30;53.31
59493;BME280;45497;43.996;22.876;2023-02-23T04:30:14;101322.47;;;7.32;53.18
59493;BME280;45497;43.996;22.876;2023-02-23T04:32:39;101319.25;;;7.28;52.97
59493;BME280;45497;43.996;22.876;2023-02-23T04:35:05;101315.94;;;7.26;52.95
59493;BME280;45497;43.996;22.876;2023-02-23T04:37:31;101325.22;;;7.30;53.03
59493;BME280;45497;43.996;22.876;2023-02-23T04:39:56;101330.38;;;7.32;52.74
59493;BME280;45497;43.996;22.876;2023-02-23T04:42:22;101320.88;;;7.19;52.94
59493;BME280;45497;43.996;22.876;2023-02-23T04:44:47;101331.97;;;7.13;53.29
59493;BME280;45497;43.996;22.876;2023-02-23T04:47:14;101335.00;;;7.08;53.41
59493;BME280;45497;43.996;22.876;2023-02-23T04:49:40;101323.84;;;6.95;53.58
59493;BME280;45497;43.996;22.876;2023-02-23T04:52:06;101323.09;;;6.83;53.67
59493;BME280;45497;43.996;22.876;2023-02-23T04:54:31;101325.84;;;6.82;53.55
59493;BME280;45497;43.996;22.876;2023-02-23T04:56:57;101322.81;;;6.86;53.86
59493;BME280;45497;43.996;22.876;2023-02-23T04:59:22;101315.38;;;6.92;53.48
59493;BME280;45497;43.996;22.876;2023-02-23T05:01:48;101327.34;;;7.05;53.34
59493;BME280;45497;43.996;22.876;2023-02-23T05:04:13;101332.09;;;7.12;52.63
59493;BME280;45497;43.996;22.876;2023-02-23T05:06:38;101331.00;;;7.14;52.35
59493;BME280;45497;43.996;22.876;2023-02-23T05:09:04;101327.34;;;7.05;52.50
59493;BME280;45497;43.996;22.876;2023-02-23T05:11:31;101330.78;;;6.96;52.34
59493;BME280;45497;43.996;22.876;2023-02-23T05:13:57;101329.50;;;6.91;52.54
59493;BME280;45497;43.996;22.876;2023-02-23T05:16:23;101333.94;;;6.90;52.57
59493;BME280;45497;43.996;22.876;2023-02-23T05:18:48;101342.44;;;6.94;52.65
59493;BME280;45497;43.996;22.876;2023-02-23T05:21:14;101344.38;;;6.92;52.55
59493;BME280;45497;43.996;22.876;2023-02-23T05:23:40;101353.47;;;6.87;52.45
59493;BME280;45497;43.996;22.876;2023-02-23T05:26:09;101353.47;;;6.87;52.67
59493;BME280;45497;43.996;22.876;2023-02-23T05:28:36;101351.50;;;6.80;52.45
59493;BME280;45497;43.996;22.876;2023-02-23T05:31:02;101351.03;;;6.75;52.76
59493;BME280;45497;43.996;22.876;2023-02-23T05:33:30;101363.97;;;6.78;52.88
59493;BME280;45497;43.996;22.876;2023-02-23T05:35:55;101358.00;;;6.76;52.67
59493;BME280;45497;43.996;22.876;2023-02-23T05:38:21;101376.56;;;6.74;52.84
59493;BME280;45497;43.996;22.876;2023-02-23T05:40:47;101371.78;;;6.68;52.98
59493;BME280;45497;43.996;22.876;2023-02-23T05:43:12;101377.22;;;6.66;53.18
59493;BME280;45497;43.996;22.876;2023-02-23T05:45:42;101377.59;;;6.62;53.16
59493;BME280;45497;43.996;22.876;2023-02-23T05:48:09;101382.03;;;6.61;53.46
59493;BME280;45497;43.996;22.876;2023-02-23T05:50:35;101393.16;;;6.65;53.46
59493;BME280;45497;43.996;22.876;2023-02-23T05:53:01;101402.81;;;6.64;53.30
59493;BME280;45497;43.996;22.876;2023-02-23T05:55:26;101404.88;;;6.61;53.33
59493;BME280;45497;43.996;22.876;2023-02-23T05:57:52;101407.31;;;6.53;53.56
59493;BME280;45497;43.996;22.876;2023-02-23T06:00:18;101404.09;;;6.49;53.68
59493;BME280;45497;43.996;22.876;2023-02-23T06:02:43;101416.19;;;6.51;53.50
59493;BME280;45497;43.996;22.876;2023-02-23T06:05:10;101416.47;;;6.37;53.63
59493;BME280;45497;43.996;22.876;2023-02-23T06:07:37;101411.25;;;6.26;54.34
59493;BME280;45497;43.996;22.876;2023-02-23T06:10:03;101425.72;;;6.31;54.03
59493;BME280;45497;43.996;22.876;2023-02-23T06:12:29;101421.44;;;6.51;53.47
59493;BME280;45497;43.996;22.876;2023-02-23T06:14:54;101427.50;;;6.63;53.56
59493;BME280;45497;43.996;22.876;2023-02-23T06:17:19;101430.84;;;6.65;53.28
59493;BME280;45497;43.996;22.876;2023-02-23T06:19:45;101436.94;;;6.66;53.25
59493;BME280;45497;43.996;22.876;2023-02-23T06:22:10;101442.56;;;6.73;53.18
59493;BME280;45497;43.996;22.876;2023-02-23T06:24:36;101444.94;;;6.76;52.84
59493;BME280;45497;43.996;22.876;2023-02-23T06:27:02;101446.81;;;6.85;52.72
59493;BME280;45497;43.996;22.876;2023-02-23T06:29:27;101448.34;;;6.87;52.93
59493;BME280;45497;43.996;22.876;2023-02-23T06:31:53;101447.84;;;6.94;52.75
59493;BME280;45497;43.996;22.876;2023-02-23T06:34:18;101441.94;;;7.01;52.44
59493;BME280;45497;43.996;22.876;2023-02-23T06:36:44;101442.97;;;7.10;52.25
59493;BME280;45497;43.996;22.876;2023-02-23T06:39:10;101451.91;;;7.19;52.05
59493;BME280;45497;43.996;22.876;2023-02-23T06:41:36;101445.44;;;7.33;51.81
59493;BME280;45497;43.996;22.876;2023-02-23T06:44:02;101451.28;;;7.36;51.82
59493;BME280;45497;43.996;22.876;2023-02-23T06:46:28;101455.66;;;7.47;51.55
59493;BME280;45497;43.996;22.876;2023-02-23T06:48:54;101443.03;;;7.51;51.42
59493;BME280;45497;43.996;22.876;2023-02-23T06:51:20;101441.16;;;7.62;51.39
59493;BME280;45497;43.996;22.876;2023-02-23T06:53:45;101460.53;;;7.82;51.17
59493;BME280;45497;43.996;22.876;2023-02-23T06:56:11;101457.19;;;7.80;51.09
59493;BME280;45497;43.996;22.876;2023-02-23T06:58:41;101450.97;;;7.81;51.16
59493;BME280;45497;43.996;22.876;2023-02-23T07:01:07;101458.63;;;7.94;51.09
59493;BME280;45497;43.996;22.876;2023-02-23T07:03:34;101459.34;;;7.96;51.08
59493;BME280;45497;43.996;22.876;2023-02-23T07:06:00;101463.50;;;7.99;50.70
59493;BME280;45497;43.996;22.876;2023-02-23T07:08:26;101467.81;;;8.00;50.74
59493;BME280;45497;43.996;22.876;2023-02-23T07:10:51;101460.59;;;8.02;50.61
59493;BME280;45497;43.996;22.876;2023-02-23T07:13:17;101462.84;;;8.16;50.70
59493;BME280;45497;43.996;22.876;2023-02-23T07:15:44;101459.09;;;8.19;50.85
59493;BME280;45497;43.996;22.876;2023-02-23T07:18:10;101458.25;;;8.18;51.06
59493;BME280;45497;43.996;22.876;2023-02-23T07:20:35;101457.75;;;8.34;50.58
59493;BME280;45497;43.996;22.876;2023-02-23T07:23:00;101457.38;;;8.49;50.38
59493;BME280;45497;43.996;22.876;2023-02-23T07:25:27;101464.63;;;8.66;50.55
59493;BME280;45497;43.996;22.876;2023-02-23T07:27:52;101463.50;;;8.59;49.84
59493;BME280;45497;43.996;22.876;2023-02-23T07:30:23;101466.56;;;8.45;50.29
59493;BME280;45497;43.996;22.876;2023-02-23T07:32:52;101474.19;;;8.48;50.46
59493;BME280;45497;43.996;22.876;2023-02-23T07:35:18;101453.56;;;8.41;50.61
59493;BME280;45497;43.996;22.876;2023-02-23T07:37:43;101455.72;;;8.57;50.50
59493;BME280;45497;43.996;22.876;2023-02-23T07:40:11;101473.09;;;8.50;50.34
59493;BME280;45497;43.996;22.876;2023-02-23T07:42:36;101470.59;;;8.49;50.58
59493;BME280;45497;43.996;22.876;2023-02-23T07:45:02;101468.34;;;8.64;49.95
59493;BME280;45497;43.996;22.876;2023-02-23T07:47:28;101468.63;;;8.80;49.75
59493;BME280;45497;43.996;22.876;2023-02-23T07:49:58;101472.69;;;8.84;49.71
59493;BME280;45497;43.996;22.876;2023-02-23T07:52:24;101481.16;;;8.78;49.32
59493;BME280;45497;43.996;22.876;2023-02-23T07:54:51;101476.72;;;8.88;49.28
59493;BME280;45497;43.996;22.876;2023-02-23T07:57:16;101479.66;;;8.75;49.54
59493;BME280;45497;43.996;22.876;2023-02-23T07:59:42;101476.16;;;8.75;49.38
59493;BME280;45497;43.996;22.876;2023-02-23T08:02:09;101485.50;;;8.98;48.85
59493;BME280;45497;43.996;22.876;2023-02-23T08:04:35;101481.84;;;8.99;48.58
59493;BME280;45497;43.996;22.876;2023-02-23T08:07:00;101489.91;;;9.17;48.49
59493;BME280;45497;43.996;22.876;2023-02-23T08:09:26;101477.25;;;9.11;48.29
59493;BME280;45497;43.996;22.876;2023-02-23T08:11:51;101472.63;;;9.23;48.17
59493;BME280;45497;43.996;22.876;2023-02-23T08:14:17;101474.41;;;9.32;48.19
59493;BME280;45497;43.996;22.876;2023-02-23T08:16:46;101489.28;;;9.53;48.19
59493;BME280;45497;43.996;22.876;2023-02-23T08:19:11;101490.88;;;9.26;48.63
59493;BME280;45497;43.996;22.876;2023-02-23T08:21:36;101490.84;;;9.36;48.61
59493;BME280;45497;43.996;22.876;2023-02-23T08:24:02;101483.59;;;9.38;48.51
59493;BME280;45497;43.996;22.876;2023-02-23T08:26:28;101484.38;;;9.58;48.05
59493;BME280;45497;43.996;22.876;2023-02-23T08:28:53;101483.31;;;9.79;47.94
59493;BME280;45497;43.996;22.876;2023-02-23T08:31:19;101477.88;;;9.80;47.77
59493;BME280;45497;43.996;22.876;2023-02-23T08:33:47;101479.00;;;9.77;47.62
59493;BME280;45497;43.996;22.876;2023-02-23T08:36:13;101485.72;;;9.72;47.92
59493;BME280;45497;43.996;22.876;2023-02-23T08:38:38;101494.94;;;9.95;47.63
59493;BME280;45497;43.996;22.876;2023-02-23T08:41:05;101493.84;;;9.98;47.23
59493;BME280;45497;43.996;22.876;2023-02-23T08:43:30;101495.88;;;10.04;46.98
59493;BME280;45497;43.996;22.876;2023-02-23T08:45:56;101490.00;;;10.10;47.08
59493;BME280;45497;43.996;22.876;2023-02-23T08:48:22;101495.25;;;10.20;46.96
59493;BME280;45497;43.996;22.876;2023-02-23T08:50:49;101502.69;;;10.44;46.85
59493;BME280;45497;43.996;22.876;2023-02-23T08:53:17;101498.81;;;10.57;46.11
59493;BME280;45497;43.996;22.876;2023-02-23T08:55:43;101501.38;;;10.48;45.99
59493;BME280;45497;43.996;22.876;2023-02-23T08:58:09;101498.06;;;10.46;45.90
59493;BME280;45497;43.996;22.876;2023-02-23T09:00:36;101487.22;;;10.58;45.98
59493;BME280;45497;43.996;22.876;2023-02-23T09:03:03;101501.06;;;10.69;45.89
59493;BME280;45497;43.996;22.876;2023-02-23T09:05:29;101493.84;;;10.71;45.63
59493;BME280;45497;43.996;22.876;2023-02-23T09:07:55;101496.69;;;10.78;45.61
59493;BME280;45497;43.996;22.876;2023-02-23T09:10:20;101495.63;;;10.89;45.35
59493;BME280;45497;43.996;22.876;2023-02-23T09:12:49;101497.97;;;10.92;45.46
59493;BME280;45497;43.996;22.876;2023-02-23T09:15:15;101508.50;;;11.02;45.42
59493;BME280;45497;43.996;22.876;2023-02-23T09:17:41;101503.38;;;11.00;45.19
59493;BME280;45497;43.996;22.876;2023-02-23T09:20:10;101497.22;;;10.82;45.47
59493;BME280;45497;43.996;22.876;2023-02-23T09:22:39;101492.97;;;10.71;45.52
59493;BME280;45497;43.996;22.876;2023-02-23T09:25:05;101502.66;;;10.80;45.48
59493;BME280;45497;43.996;22.876;2023-02-23T09:27:30;101501.47;;;10.75;45.62
59493;BME280;45497;43.996;22.876;2023-02-23T09:29:56;101492.28;;;10.87;45.36
59493;BME280;45497;43.996;22.876;2023-02-23T09:32:21;101501.28;;;11.12;45.19
59493;BME280;45497;43.996;22.876;2023-02-23T09:34:47;101501.06;;;11.05;45.02
59493;BME280;45497;43.996;22.876;2023-02-23T09:37:13;101510.94;;;11.13;45.01
59493;BME280;45497;43.996;22.876;2023-02-23T09:39:39;101507.59;;;11.11;44.77
59493;BME280;45497;43.996;22.876;2023-02-23T09:50:26;101505.16;;;11.44;44.65
59493;BME280;45497;43.996;22.876;2023-02-23T09:53:06;101516.41;;;11.64;44.24
59493;BME280;45497;43.996;22.876;2023-02-23T09:55:34;101516.53;;;11.54;44.26
59493;BME280;45497;43.996;22.876;2023-02-23T09:58:06;101520.16;;;11.53;43.98
59493;BME280;45497;43.996;22.876;2023-02-23T10:00:36;101514.22;;;11.59;43.95
59493;BME280;45497;43.996;22.876;2023-02-23T10:03:22;101519.00;;;11.56;43.49
59493;BME280;45497;43.996;22.876;2023-02-23T10:06:02;101522.19;;;11.59;43.55
59493;BME280;45497;43.996;22.876;2023-02-23T10:11:34;101502.25;;;11.90;42.86
59493;BME280;45497;43.996;22.876;2023-02-23T10:17:08;101519.63;;;11.76;43.12
59493;BME280;45497;43.996;22.876;2023-02-23T10:22:09;101515.53;;;11.90;42.92
59493;BME280;45497;43.996;22.876;2023-02-23T10:24:40;101518.50;;;11.86;42.78
59493;BME280;45497;43.996;22.876;2023-02-23T10:27:13;101510.16;;;11.73;43.30
59493;BME280;45497;43.996;22.876;2023-02-23T10:29:45;101502.75;;;11.85;43.46
59493;BME280;45497;43.996;22.876;2023-02-23T10:34:54;101503.72;;;12.10;43.07
59493;BME280;45497;43.996;22.876;2023-02-23T10:37:22;101502.69;;;12.03;43.20
59493;BME280;45497;43.996;22.876;2023-02-23T10:39:48;101501.88;;;12.11;43.23
59493;BME280;45497;43.996;22.876;2023-02-23T10:42:22;101497.53;;;12.01;43.27
59493;BME280;45497;43.996;22.876;2023-02-23T10:44:48;101497.91;;;12.15;43.19
59493;BME280;45497;43.996;22.876;2023-02-23T10:47:20;101494.63;;;12.29;43.16
59493;BME280;45497;43.996;22.876;2023-02-23T10:49:49;101491.81;;;12.31;43.13
59493;BME280;45497;43.996;22.876;2023-02-23T10:54:55;101475.19;;;12.37;42.75
59493;BME280;45497;43.996;22.876;2023-02-23T10:57:28;101471.03;;;12.34;43.01
59493;BME280;45497;43.996;22.876;2023-02-23T11:02:45;101461.41;;;12.33;42.95
59493;BME280;45497;43.996;22.876;2023-02-23T11:05:35;101454.75;;;12.29;43.01
59493;BME280;45497;43.996;22.876;2023-02-23T11:08:22;101447.44;;;12.31;43.03
59493;BME280;45497;43.996;22.876;2023-02-23T11:11:03;101465.56;;;12.44;42.90
59493;BME280;45497;43.996;22.876;2023-02-23T11:13:43;101457.78;;;12.59;42.83
59493;BME280;45497;43.996;22.876;2023-02-23T11:16:12;101450.66;;;12.68;42.58
59493;BME280;45497;43.996;22.876;2023-02-23T11:18:41;101456.47;;;12.79;42.29
59493;BME280;45497;43.996;22.876;2023-02-23T11:21:12;101454.47;;;12.73;42.23
59493;BME280;45497;43.996;22.876;2023-02-23T11:23:39;101443.66;;;12.58;42.58
59493;BME280;45497;43.996;22.876;2023-02-23T11:26:21;101443.84;;;12.73;42.49
59493;BME280;45497;43.996;22.876;2023-02-23T11:28:52;101451.31;;;12.86;42.20
59493;BME280;45497;43.996;22.876;2023-02-23T11:31:20;101452.63;;;12.90;42.09
59493;BME280;45497;43.996;22.876;2023-02-23T11:33:48;101445.31;;;12.92;41.96
59493;BME280;45497;43.996;22.876;2023-02-23T11:41:40;101443.44;;;13.26;41.55
59493;BME280;45497;43.996;22.876;2023-02-23T11:44:05;101439.44;;;13.22;41.58
59493;BME280;45497;43.996;22.876;2023-02-23T11:46:34;101434.44;;;13.27;41.65
59493;BME280;45497;43.996;22.876;2023-02-23T11:49:05;101434.94;;;13.30;41.34
59493;BME280;45497;43.996;22.876;2023-02-23T11:51:40;101442.63;;;13.42;41.32
59493;BME280;45497;43.996;22.876;2023-02-23T11:54:06;101433.44;;;13.52;41.40
59493;BME280;45497;43.996;22.876;2023-02-23T11:56:47;101432.22;;;13.63;40.95
59493;BME280;45497;43.996;22.876;2023-02-23T11:59:17;101431.22;;;13.64;41.17
59493;BME280;45497;43.996;22.876;2023-02-23T12:01:53;101419.34;;;13.75;41.02
59493;BME280;45497;43.996;22.876;2023-02-23T12:04:28;101427.56;;;13.65;40.59
59493;BME280;45497;43.996;22.876;2023-02-23T12:07:19;101424.41;;;13.53;40.81
59493;BME280;45497;43.996;22.876;2023-02-23T12:09:51;101425.22;;;13.62;41.18
59493;BME280;45497;43.996;22.876;2023-02-23T12:12:23;101416.09;;;13.56;41.05
59493;BME280;45497;43.996;22.876;2023-02-23T12:14:55;101419.19;;;13.68;40.82
59493;BME280;45497;43.996;22.876;2023-02-23T12:17:49;101424.34;;;13.70;40.69
59493;BME280;45497;43.996;22.876;2023-02-23T12:20:27;101416.03;;;13.73;40.86
59493;BME280;45497;43.996;22.876;2023-02-23T12:22:57;101422.28;;;13.88;40.34
59493;BME280;45497;43.996;22.876;2023-02-23T12:30:42;101417.88;;;14.04;40.33
59493;BME280;45497;43.996;22.876;2023-02-23T12:33:16;101416.56;;;14.00;40.60
59493;BME280;45497;43.996;22.876;2023-02-23T12:41:35;101405.50;;;14.11;40.40
59493;BME280;45497;43.996;22.876;2023-02-23T12:46:53;101408.63;;;14.14;40.41
59493;BME280;45497;43.996;22.876;2023-02-23T12:49:30;101410.03;;;14.33;40.24
59493;BME280;45497;43.996;22.876;2023-02-23T12:52:07;101413.25;;;14.44;40.28
59493;BME280;45497;43.996;22.876;2023-02-23T12:54:35;101408.66;;;14.38;40.20
59493;BME280;45497;43.996;22.876;2023-02-23T13:05:17;101403.50;;;14.36;40.38
59493;BME280;45497;43.996;22.876;2023-02-23T13:08:17;101410.88;;;14.26;40.35
59493;BME280;45497;43.996;22.876;2023-02-23T13:11:06;101409.19;;;14.10;40.62
59493;BME280;45497;43.996;22.876;2023-02-23T13:14:43;101397.75;;;13.93;41.12
59493;BME280;45497;43.996;22.876;2023-02-23T13:17:13;101403.38;;;14.29;40.72
59493;BME280;45497;43.996;22.876;2023-02-23T13:19:49;101404.13;;;14.15;40.75
59493;BME280;45497;43.996;22.876;2023-02-23T13:27:52;101395.38;;;14.06;41.00
59493;BME280;45497;43.996;22.876;2023-02-23T13:30:19;101394.91;;;14.03;41.29
59493;BME280;45497;43.996;22.876;2023-02-23T13:32:47;101393.47;;;13.92;41.62
59493;BME280;45497;43.996;22.876;2023-02-23T13:35:14;101407.81;;;13.83;41.75
59493;BME280;45497;43.996;22.876;2023-02-23T13:37:42;101408.84;;;13.73;42.28
59493;BME280;45497;43.996;22.876;2023-02-23T13:53:45;101407.56;;;13.61;42.71
59493;BME280;45497;43.996;22.876;2023-02-23T13:56:20;101417.41;;;13.61;42.98
59493;BME280;45497;43.996;22.876;2023-02-23T13:58:51;101420.28;;;13.51;43.14
59493;BME280;45497;43.996;22.876;2023-02-23T14:01:26;101418.28;;;13.53;43.17
59493;BME280;45497;43.996;22.876;2023-02-23T14:03:56;101416.00;;;13.42;43.40
59493;BME280;45497;43.996;22.876;2023-02-23T14:06:24;101415.31;;;13.39;43.44
59493;BME280;45497;43.996;22.876;2023-02-23T14:08:54;101424.28;;;13.30;43.47
59493;BME280;45497;43.996;22.876;2023-02-23T14:11:45;101433.97;;;13.23;43.86
59493;BME280;45497;43.996;22.876;2023-02-23T14:20:02;101430.34;;;12.99;44.44
59493;BME280;45497;43.996;22.876;2023-02-23T14:22:32;101436.69;;;12.82;44.97
59493;BME280;45497;43.996;22.876;2023-02-23T14:28:03;101449.31;;;12.88;44.96
59493;BME280;45497;43.996;22.876;2023-02-23T14:30:45;101451.16;;;12.79;45.22
59493;BME280;45497;43.996;22.876;2023-02-23T14:36:01;101453.47;;;12.50;45.92
59493;BME280;45497;43.996;22.876;2023-02-23T14:38:33;101436.66;;;12.49;45.99
59493;BME280;45497;43.996;22.876;2023-02-23T14:41:03;101462.75;;;12.37;46.37
59493;BME280;45497;43.996;22.876;2023-02-23T14:46:32;101453.06;;;12.20;46.75
59493;BME280;45497;43.996;22.876;2023-02-23T14:49:05;101456.19;;;12.15;46.86
59493;BME280;45497;43.996;22.876;2023-02-23T14:52:07;101450.31;;;11.95;47.16
59493;BME280;45497;43.996;22.876;2023-02-23T14:54:38;101470.50;;;11.80;47.81
59493;BME280;45497;43.996;22.876;2023-02-23T14:57:17;101458.72;;;11.82;47.59
59493;BME280;45497;43.996;22.876;2023-02-23T14:59:43;101451.59;;;11.83;47.53